Time,TemperatureF,DewpointF,PressureIn,WindDirection,WindDirectionDegrees,WindSpeedMPH,WindSpeedGustMPH,Humidity,HourlyPrecipIn,Conditions,Clouds,dailyrainin,SolarRadiationWatts/m^2,SoftwareType,DateUTC
2013-04-22 00:02:00,46.0,35.0,-100.00,South,176,11.0,19.0,66,0.00,,,0.10,0.000000,,2013-04-22 05:02:00,
2013-04-22 00:33:00,47.0,38.0,-100.00,WSW,245,7.0,22.0,70,0.00,,,0.10,0.000000,,2013-04-22 05:33:00,
2013-04-22 00:42:00,47.0,38.0,-100.00,WSW,245,7.0,22.0,70,0.00,,,0.10,0.000000,,2013-04-22 05:42:00,
2013-04-22 00:52:00,47.0,38.0,-100.00,WSW,245,7.0,22.0,70,0.00,,,0.10,0.000000,,2013-04-22 05:52:00,
2013-04-22 01:02:00,47.0,38.0,-100.00,WSW,245,7.0,22.0,70,0.00,,,0.10,0.000000,,2013-04-22 06:02:00,
2013-04-22 01:32:00,46.0,37.0,-100.00,South,176,6.0,13.0,71,0.00,,,0.10,0.000000,,2013-04-22 06:32:00,
2013-04-22 01:42:00,46.0,37.0,-100.00,South,176,6.0,13.0,71,0.00,,,0.10,0.000000,,2013-04-22 06:42:00,
2013-04-22 01:52:00,46.0,37.0,-100.00,South,176,6.0,13.0,71,0.00,,,0.10,0.000000,,2013-04-22 06:52:00,
2013-04-22 02:01:00,46.0,37.0,-100.00,South,176,6.0,13.0,71,0.00,,,0.10,0.000000,,2013-04-22 07:01:00,
2013-04-22 02:32:00,46.0,37.0,-100.00,South,189,6.0,11.0,72,0.00,,,0.10,0.000000,,2013-04-22 07:32:00,
2013-04-22 02:42:00,46.0,37.0,-100.00,South,189,6.0,11.0,72,0.00,,,0.10,0.000000,,2013-04-22 07:42:00,
2013-04-22 02:52:00,46.0,37.0,-100.00,South,189,6.0,11.0,72,0.00,,,0.10,0.000000,,2013-04-22 07:52:00,
2013-04-22 03:02:00,46.0,37.0,-100.00,South,189,6.0,11.0,72,0.00,,,0.10,0.000000,,2013-04-22 08:02:00,
2013-04-22 03:32:00,44.0,39.0,-100.00,South,191,7.0,11.0,83,0.00,,,0.10,0.000000,,2013-04-22 08:32:00,
2013-04-22 03:42:00,44.0,39.0,-100.00,South,191,7.0,11.0,83,0.00,,,0.10,0.000000,,2013-04-22 08:42:00,
2013-04-22 03:53:00,44.0,39.0,-100.00,South,191,7.0,11.0,83,0.00,,,0.10,0.000000,,2013-04-22 08:53:00,
2013-04-22 04:01:00,44.0,39.0,-100.00,South,191,7.0,11.0,83,0.00,,,0.10,0.000000,,2013-04-22 09:01:00,
2013-04-22 04:33:00,43.0,41.0,-100.00,South,179,8.0,11.0,94,0.02,,,0.12,0.000000,,2013-04-22 09:33:00,
2013-04-22 04:42:00,43.0,41.0,-100.00,South,179,8.0,11.0,94,0.02,,,0.12,0.000000,,2013-04-22 09:42:00,
2013-04-22 04:52:00,43.0,41.0,-100.00,South,179,8.0,11.0,94,0.02,,,0.12,0.000000,,2013-04-22 09:52:00,
2013-04-22 05:03:00,43.0,41.0,-100.00,South,179,8.0,11.0,94,0.02,,,0.12,0.000000,,2013-04-22 10:03:00,
2013-04-22 05:32:00,44.0,43.0,-100.00,South,190,10.0,15.0,96,0.00,,,0.12,0.000000,,2013-04-22 10:32:00,
2013-04-22 05:42:00,44.0,43.0,-100.00,South,190,10.0,15.0,96,0.00,,,0.12,0.000000,,2013-04-22 10:42:00,
2013-04-22 05:52:00,44.0,43.0,-100.00,South,190,10.0,15.0,96,0.00,,,0.12,0.000000,,2013-04-22 10:52:00,
2013-04-22 06:02:00,44.0,43.0,-100.00,South,190,10.0,15.0,96,0.00,,,0.12,0.000000,,2013-04-22 11:02:00,
2013-04-22 07:32:00,43.0,42.0,-100.00,South,180,5.0,10.0,98,-99.99,,,0.12,4.000000,,2013-04-22 12:32:00,
2013-04-22 07:42:00,43.0,42.0,-100.00,South,180,5.0,10.0,98,-99.99,,,0.12,4.000000,,2013-04-22 12:42:00,
2013-04-22 07:52:00,43.0,42.0,-100.00,South,180,5.0,10.0,98,-99.99,,,0.12,4.000000,,2013-04-22 12:52:00,
2013-04-22 08:01:00,43.0,42.0,-100.00,South,180,5.0,10.0,98,-99.99,,,0.12,4.000000,,2013-04-22 13:01:00,
2013-04-22 08:32:00,44.0,43.0,-100.00,South,173,4.0,8.0,95,0.00,,,0.12,31.000000,,2013-04-22 13:32:00,
2013-04-22 08:42:00,44.0,43.0,-100.00,South,173,4.0,8.0,95,0.00,,,0.12,31.000000,,2013-04-22 13:42:00,
2013-04-22 08:53:00,44.0,43.0,-100.00,South,173,4.0,8.0,95,0.00,,,0.12,31.000000,,2013-04-22 13:53:00,
2013-04-22 09:02:00,44.0,43.0,-100.00,South,173,4.0,8.0,95,0.00,,,0.12,31.000000,,2013-04-22 14:02:00,
2013-04-22 09:33:00,45.0,43.0,-100.00,South,176,5.0,9.0,91,0.01,,,0.12,48.000000,,2013-04-22 14:33:00,
2013-04-22 09:42:00,45.0,43.0,-100.00,South,176,5.0,9.0,91,0.01,,,0.12,48.000000,,2013-04-22 14:42:00,
2013-04-22 09:52:00,45.0,43.0,-100.00,South,176,5.0,9.0,91,0.01,,,0.12,48.000000,,2013-04-22 14:52:00,
2013-04-22 10:01:00,45.0,43.0,-100.00,South,176,5.0,9.0,91,0.01,,,0.12,48.000000,,2013-04-22 15:01:00,
2013-04-22 10:33:00,46.0,42.0,-100.00,SSW,195,6.0,9.0,85,0.00,,,0.10,107.000000,,2013-04-22 15:33:00,
2013-04-22 10:43:00,46.0,42.0,-100.00,SSW,195,6.0,9.0,85,0.00,,,0.10,107.000000,,2013-04-22 15:43:00,
2013-04-22 10:53:00,46.0,42.0,-100.00,SSW,195,6.0,9.0,85,0.00,,,0.10,107.000000,,2013-04-22 15:53:00,
2013-04-22 11:03:00,46.0,42.0,-100.00,SSW,195,6.0,9.0,85,0.00,,,0.10,107.000000,,2013-04-22 16:03:00,
2013-04-22 11:33:00,46.0,44.0,-100.00,South,189,5.0,10.0,91,0.01,,,0.10,140.000000,,2013-04-22 16:33:00,
2013-04-22 11:42:00,46.0,44.0,-100.00,South,189,5.0,10.0,91,0.01,,,0.10,140.000000,,2013-04-22 16:42:00,
2013-04-22 11:52:00,46.0,44.0,-100.00,South,189,5.0,10.0,91,0.01,,,0.10,140.000000,,2013-04-22 16:52:00,
2013-04-22 12:02:00,46.0,44.0,-100.00,South,189,5.0,10.0,91,0.01,,,0.10,140.000000,,2013-04-22 17:02:00,
2013-04-22 12:32:00,46.0,45.0,-100.00,SSW,204,5.0,11.0,98,0.04,,,0.10,114.000000,,2013-04-22 17:32:00,
2013-04-22 12:43:00,46.0,45.0,-100.00,SSW,204,5.0,11.0,98,0.04,,,0.10,114.000000,,2013-04-22 17:43:00,
2013-04-22 12:52:00,46.0,45.0,-100.00,SSW,204,5.0,11.0,98,0.04,,,0.10,114.000000,,2013-04-22 17:52:00,
2013-04-22 13:01:00,46.0,45.0,-100.00,SSW,204,5.0,11.0,98,0.04,,,0.10,114.000000,,2013-04-22 18:01:00,
2013-04-22 13:32:00,46.0,46.0,-100.00,SSE,167,5.0,7.0,99,0.01,,,0.10,87.000000,,2013-04-22 18:32:00,
2013-04-22 13:42:00,46.0,46.0,-100.00,SSE,167,5.0,7.0,99,0.01,,,0.10,87.000000,,2013-04-22 18:42:00,
2013-04-22 13:52:00,46.0,46.0,-100.00,SSE,167,5.0,7.0,99,0.01,,,0.10,87.000000,,2013-04-22 18:52:00,
2013-04-22 14:01:00,46.0,46.0,-100.00,SSE,167,5.0,7.0,99,0.01,,,0.10,87.000000,,2013-04-22 19:01:00,
2013-04-22 14:32:00,47.0,46.0,-100.00,East,98,3.0,6.0,97,0.02,,,0.12,93.000000,,2013-04-22 19:32:00,
2013-04-22 14:42:00,47.0,46.0,-100.00,East,98,3.0,6.0,97,0.02,,,0.12,93.000000,,2013-04-22 19:42:00,
2013-04-22 14:53:00,47.0,46.0,-100.00,East,98,3.0,6.0,97,0.02,,,0.12,93.000000,,2013-04-22 19:53:00,
2013-04-22 15:02:00,47.0,46.0,-100.00,East,98,3.0,6.0,97,0.02,,,0.12,93.000000,,2013-04-22 20:02:00,
2013-04-22 15:32:00,47.0,47.0,-100.00,ESE,104,2.0,7.0,99,0.04,,,0.16,113.000000,,2013-04-22 20:32:00,
2013-04-22 15:42:00,47.0,47.0,-100.00,ESE,104,2.0,7.0,99,0.04,,,0.16,113.000000,,2013-04-22 20:42:00,
2013-04-22 15:52:00,47.0,47.0,-100.00,ESE,104,2.0,7.0,99,0.04,,,0.16,113.000000,,2013-04-22 20:52:00,
2013-04-22 16:02:00,47.0,47.0,-100.00,ESE,104,2.0,7.0,99,0.04,,,0.16,113.000000,,2013-04-22 21:02:00,
2013-04-22 16:33:00,49.0,49.0,-100.00,ENE,76,4.0,8.0,100,0.00,,,0.15,169.000000,,2013-04-22 21:33:00,
2013-04-22 16:43:00,49.0,49.0,-100.00,ENE,76,4.0,8.0,100,0.00,,,0.15,169.000000,,2013-04-22 21:43:00,
2013-04-22 16:53:00,49.0,49.0,-100.00,ENE,76,4.0,8.0,100,0.00,,,0.15,169.000000,,2013-04-22 21:53:00,
2013-04-22 17:03:00,49.0,49.0,-100.00,ENE,76,4.0,8.0,100,0.00,,,0.15,169.000000,,2013-04-22 22:03:00,
2013-04-22 17:33:00,49.0,48.0,-100.00,ENE,77,4.0,9.0,98,0.00,,,0.15,136.000000,,2013-04-22 22:33:00,
2013-04-22 17:42:00,49.0,48.0,-100.00,ENE,77,4.0,9.0,98,0.00,,,0.15,136.000000,,2013-04-22 22:42:00,
2013-04-22 17:52:00,49.0,48.0,-100.00,ENE,77,4.0,9.0,98,0.00,,,0.15,136.000000,,2013-04-22 22:52:00,
2013-04-22 18:02:00,49.0,48.0,-100.00,ENE,77,4.0,9.0,98,0.00,,,0.15,136.000000,,2013-04-22 23:02:00,
2013-04-22 18:33:00,49.0,48.0,-100.00,NE,42,3.0,7.0,98,0.00,,,0.15,84.000000,,2013-04-22 23:33:00,
2013-04-22 18:42:00,49.0,48.0,-100.00,NE,42,3.0,7.0,98,0.00,,,0.15,84.000000,,2013-04-22 23:42:00,
2013-04-22 18:52:00,49.0,48.0,-100.00,NE,42,3.0,7.0,98,0.00,,,0.15,84.000000,,2013-04-22 23:52:00,
2013-04-22 19:02:00,49.0,48.0,-100.00,NE,42,3.0,7.0,98,0.00,,,0.15,84.000000,,2013-04-23 00:02:00,
2013-04-22 20:32:00,47.0,46.0,-100.00,ENE,71,5.0,9.0,95,-99.99,,,0.15,6.000000,,2013-04-23 01:32:00,
2013-04-22 20:42:00,47.0,46.0,-100.00,ENE,71,5.0,9.0,95,-99.99,,,0.15,6.000000,,2013-04-23 01:42:00,
2013-04-22 20:52:00,47.0,46.0,-100.00,ENE,71,5.0,9.0,95,-99.99,,,0.15,6.000000,,2013-04-23 01:52:00,
2013-04-22 21:02:00,47.0,46.0,-100.00,ENE,71,5.0,9.0,95,-99.99,,,0.15,6.000000,,2013-04-23 02:02:00,
2013-04-22 21:33:00,46.0,45.0,-100.00,ENE,65,4.0,9.0,95,0.00,,,0.15,0.000000,,2013-04-23 02:33:00,
2013-04-22 21:42:00,46.0,45.0,-100.00,ENE,65,4.0,9.0,95,0.00,,,0.15,0.000000,,2013-04-23 02:42:00,
2013-04-22 21:52:00,46.0,45.0,-100.00,ENE,65,4.0,9.0,95,0.00,,,0.15,0.000000,,2013-04-23 02:52:00,
2013-04-22 22:01:00,46.0,45.0,-100.00,ENE,65,4.0,9.0,95,0.00,,,0.15,0.000000,,2013-04-23 03:01:00,
2013-04-22 22:33:00,46.0,45.0,-100.00,East,85,4.0,6.0,97,0.00,,,0.15,0.000000,,2013-04-23 03:33:00,
2013-04-22 22:43:00,46.0,45.0,-100.00,East,85,4.0,6.0,97,0.00,,,0.15,0.000000,,2013-04-23 03:43:00,
2013-04-22 22:53:00,46.0,45.0,-100.00,East,85,4.0,6.0,97,0.00,,,0.15,0.000000,,2013-04-23 03:53:00,
2013-04-22 23:03:00,46.0,45.0,-100.00,East,85,4.0,6.0,97,0.00,,,0.15,0.000000,,2013-04-23 04:03:00,
2013-04-22 23:33:00,44.0,44.0,-100.00,NNE,18,3.0,5.0,100,0.00,,,0.15,0.000000,,2013-04-23 04:33:00,
2013-04-22 23:44:00,44.0,44.0,-100.00,NNE,18,3.0,5.0,100,0.00,,,0.15,0.000000,,2013-04-23 04:44:00,
2013-04-22 23:53:00,44.0,44.0,-100.00,NNE,18,3.0,5.0,100,0.00,,,0.15,0.000000,,2013-04-23 04:53:00,